Westchase, Florida
Current Conditions -  °F | °C
As of 6:55 PM on Tuesday 25 Nov 2014 (Local Time) from KTPA Reporting Station
Thunderstorm Thunderstorm  
Wind Chill: 72°   Ceiling: 4200
Heat Index: 72°   Visibility: 2mi
Dew Point: 69°   Wind: 7mph
Humidity: 91%   Direction: 200°SSW
Pressure: 29.92"   Gusts: NA
Location:  28.0595°N, 82.6106°W
Report Text: KTPA 252355Z 20006KT 2SM -TSRA BR FEW006 SCT031CB OVC042 22/21 A2992 RMK AO2 SFC VIS 4 PRESRR P0000 T02220206
Loading
Personal Weather Stations






























Interactive Weather Map New forecast layout! Learn more

10-Day Weather Forecast

Advertisements
Track Severe Weather on mobile